Terminal Aerodrome Forecast
Issued by NWS

Home | Current Version | Previous Version | Text Only | Print | Product List | Glossary On
Versions: 1 2 3 4 5 6 7 8 9 10 11 12 13 14 15 16 17 18 19 20 21 22 23 24 25 26 27 28 29 30 31 32 33 34 35 36 37 38 39 40 41 42
000
FTUS41 KRNK 111726
TAFBCB
TAF
KBCB 111726Z 1118/1218 11004KT P6SM SCT035
      TEMPO 1118/1122 BKN035
     FM120100 15003KT P6SM FEW025
     FM120900 00000KT 3/4SM BR BKN001
      TEMPO 1209/1212 1/4SM FG OVC001
     FM121300 19004KT P6SM SCT025=

USA.gov is the U.S. government's official web portal to all federal, state and local government web resources and services.